Time;durP1;ratioP1;P1;durP2;ratioP2;P2;SDS_P1;SDS_P2;PMS_P1;PMS_P2;Temp;Humidity;BMP_temperature;BMP_pressure;BME280_temperature;BME280_humidity;BME280_pressure;Samples;Min_cycle;Max_cycle;Signal;HPM_P1;HPM_P2
2023/07/02 00:02:16;;;;;;;;;;;;;;;-144.99;100.00;52348.22;5023399;28;19937;-68
2023/07/02 00:04:43;;;;;;;;;;;;;;;-144.99;100.00;52317.66;5025056;28;19939;-69
2023/07/02 00:07:10;;;;;;;;;;;;;;;-144.99;100.00;52321.72;5029094;28;19925;-67
2023/07/02 00:09:36;;;;;;;;;;;;;;;-144.99;100.00;52297.25;5028865;28;19967;-68
2023/07/02 00:12:05;;;;;;;;;;;;;;;-144.99;100.00;52329.88;5034610;28;19925;-67
2023/07/02 00:14:31;;;;;;;;;;;;;;;-144.99;100.00;52272.81;5029122;28;19952;-68
2023/07/02 00:16:58;;;;;;;;;;;;;;;-144.99;100.00;52350.25;5027589;28;19952;-68
2023/07/02 00:19:25;;;;;;;;;;;;;;;-144.99;100.00;52362.50;5025742;28;19933;-68
2023/07/02 00:21:53;;;;;;;;;;;;;;;-144.99;100.00;52358.41;5029474;28;19925;-68
2023/07/02 00:24:20;;;;;;;;;;;;;;;-144.99;100.00;52350.25;5029797;28;19970;-68
2023/07/02 00:26:46;;;;;;;;;;;;;;;-144.99;100.00;52358.41;5031346;28;20419;-68
2023/07/02 00:29:14;;;;;;;;;;;;;;;-144.99;100.00;52362.50;5027741;28;19951;-68
2023/07/02 00:31:41;;;;;;;;;;;;;;;-144.99;100.00;52336.00;5033357;28;19936;-68
2023/07/02 00:34:08;;;;;;;;;;;;;;;-144.99;100.00;52301.34;5033716;28;19944;-67
2023/07/02 00:36:34;;;;;;;;;;;;;;;-144.99;100.00;52342.09;5028068;28;19950;-68
2023/07/02 00:39:01;;;;;;;;;;;;;;;-144.99;100.00;52315.59;5026202;28;19957;-69
2023/07/02 00:41:28;;;;;;;;;;;;;;;-144.99;100.00;52325.81;5032810;28;19962;-68
2023/07/02 00:43:55;;;;;;;;;;;;;;;-144.99;100.00;52319.69;5030270;28;19929;-68
2023/07/02 00:46:24;;;;;;;;;;;;;;;-144.99;100.00;52333.94;5030952;28;20351;-67
2023/07/02 00:48:52;;;;;;;;;;;;;;;-144.99;100.00;52348.22;5031489;28;20390;-67
2023/07/02 00:51:19;;;;;;;;;;;;;;;-144.99;100.00;52303.38;5026146;28;19925;-69
2023/07/02 00:53:46;;;;;;;;;;;;;;;-144.99;100.00;52362.50;5031072;28;19946;-68
2023/07/02 00:56:13;;;;;;;;;;;;;;;-144.99;100.00;52342.09;5031331;28;19967;-68
2023/07/02 00:58:46;;;;;;;;;;;;;;;-144.99;100.00;52317.66;5030340;28;20350;-68
2023/07/02 01:01:13;;;;;;;;;;;;;;;-144.99;100.00;52338.03;5030625;28;20392;-68
2023/07/02 01:03:53;;;;;;;;;;;;;;;-144.99;100.00;52338.03;5030954;28;19939;-68
2023/07/02 01:06:24;;;;;;;;;;;;;;;-144.99;100.00;52354.34;5022261;28;19931;-68
2023/07/02 01:08:51;;;;;;;;;;;;;;;-144.99;100.00;52370.63;5030497;28;20733;-67
2023/07/02 01:11:18;;;;;;;;;;;;;;;-144.99;100.00;52376.75;5031392;28;19963;-68
2023/07/02 01:13:45;;;;;;;;;;;;;;;-144.99;100.00;52309.50;5030567;28;20409;-68
2023/07/02 01:16:12;;;;;;;;;;;;;;;-144.99;100.00;52350.25;5029233;28;19935;-68
2023/07/02 01:18:39;;;;;;;;;;;;;;;-144.99;100.00;52329.88;5027507;28;20013;-69
2023/07/02 01:21:07;;;;;;;;;;;;;;;-144.99;100.00;52336.00;5031416;28;19955;-67
2023/07/02 01:23:34;;;;;;;;;;;;;;;-144.99;100.00;52333.94;5029315;28;19963;-68
2023/07/02 01:26:01;;;;;;;;;;;;;;;-144.99;100.00;52301.34;5049693;22;19961;-69
2023/07/02 01:28:35;;;;;;;;;;;;;;;-144.99;100.00;52360.44;5040034;28;19966;-69
2023/07/02 01:31:02;;;;;;;;;;;;;;;-144.99;100.00;52329.88;5044530;28;19925;-68
2023/07/02 01:33:28;;;;;;;;;;;;;;;-144.99;100.00;52329.88;5040028;28;19941;-69
2023/07/02 01:35:55;;;;;;;;;;;;;;;-144.99;100.00;52370.63;5037924;28;19936;-69
2023/07/02 01:38:23;;;;;;;;;;;;;;;-144.99;100.00;52329.88;5043750;28;20393;-69
2023/07/02 01:40:49;;;;;;;;;;;;;;;-144.99;100.00;52327.84;5046279;28;20009;-69
2023/07/02 01:43:16;;;;;;;;;;;;;;;-144.99;100.00;52358.41;5044422;28;19947;-69
2023/07/02 01:45:43;;;;;;;;;;;;;;;-144.99;100.00;52346.19;5045484;28;19944;-71
2023/07/02 01:48:09;;;;;;;;;;;;;;;-144.99;100.00;52301.34;5048039;28;19971;-69
2023/07/02 01:50:36;;;;;;;;;;;;;;;-144.99;100.00;52370.63;5046117;28;19962;-69
2023/07/02 01:53:03;;;;;;;;;;;;;;;-144.99;100.00;52338.03;5038398;28;19929;-69
2023/07/02 01:55:31;;;;;;;;;;;;;;;-144.99;100.00;52407.31;5043597;28;19949;-69
2023/07/02 01:57:57;;;;;;;;;;;;;;;-144.99;100.00;52362.50;5044128;28;19947;-69
2023/07/02 02:00:24;;;;;;;;;;;;;;;-144.99;100.00;52366.56;5044339;28;20435;-69
2023/07/02 02:02:51;;;;;;;;;;;;;;;-144.99;100.00;52346.19;5052956;28;19939;-70
2023/07/02 02:05:18;;;;;;;;;;;;;;;-144.99;100.00;52354.34;5035243;28;19985;-70
2023/07/02 02:07:44;;;;;;;;;;;;;;;-144.99;100.00;52338.03;5038165;28;19933;-69
2023/07/02 02:10:11;;;;;;;;;;;;;;;-144.99;100.00;52358.41;5034237;28;20105;-69
2023/07/02 02:12:39;;;;;;;;;;;;;;;-144.99;100.00;52321.72;5033926;28;19943;-71
2023/07/02 02:15:06;;;;;;;;;;;;;;;-144.99;100.00;52338.03;5056032;28;19937;-70
2023/07/02 02:17:35;;;;;;;;;;;;;;;-144.99;100.00;52325.81;5035064;28;20160;-71
2023/07/02 02:20:01;;;;;;;;;;;;;;;-144.99;100.00;52309.50;5042209;28;19990;-70
2023/07/02 02:22:28;;;;;;;;;;;;;;;-144.99;100.00;52352.28;5038993;28;19996;-69
2023/07/02 02:24:54;;;;;;;;;;;;;;;-144.99;100.00;52378.78;5042401;28;19941;-69
2023/07/02 02:27:21;;;;;;;;;;;;;;;-144.99;100.00;52382.88;5032917;28;19946;-68
2023/07/02 02:29:49;;;;;;;;;;;;;;;-144.99;100.00;52285.03;5044941;28;19961;-69
2023/07/02 02:32:19;;;;;;;;;;;;;;;-144.99;100.00;52319.69;5046264;28;19987;-72
2023/07/02 02:34:46;;;;;;;;;;;;;;;-144.99;100.00;52374.72;5040913;28;19950;-70
2023/07/02 02:37:12;;;;;;;;;;;;;;;-144.99;100.00;52346.19;5043613;28;19931;-71
2023/07/02 02:39:39;;;;;;;;;;;;;;;-144.99;100.00;52354.34;5042513;28;20429;-69
2023/07/02 02:42:06;;;;;;;;;;;;;;;-144.99;100.00;52333.94;5044450;28;19942;-70
2023/07/02 02:44:33;;;;;;;;;;;;;;;-144.99;100.00;52366.56;5041410;28;19990;-69
2023/07/02 02:47:01;;;;;;;;;;;;;;;-144.99;100.00;52358.41;5045593;28;20050;-69
2023/07/02 02:49:27;;;;;;;;;;;;;;;-144.99;100.00;52346.19;5044001;28;19973;-70
2023/07/02 02:51:54;;;;;;;;;;;;;;;-144.99;100.00;52358.41;5045807;28;19944;-69
2023/07/02 02:54:21;;;;;;;;;;;;;;;-144.99;100.00;52321.72;5041897;28;19962;-70
2023/07/02 02:56:47;;;;;;;;;;;;;;;-144.99;100.00;52346.19;5033713;28;20246;-70
2023/07/02 02:59:14;;;;;;;;;;;;;;;-144.99;100.00;52329.88;5044465;28;19924;-70
2023/07/02 03:01:40;;;;;;;;;;;;;;;-144.99;100.00;52354.34;5044810;28;19955;-70
2023/07/02 03:04:09;;;;;;;;;;;;;;;-144.99;100.00;52329.88;5043238;28;19946;-70
2023/07/02 03:06:35;;;;;;;;;;;;;;;-144.99;100.00;52336.00;5040164;28;19964;-70
2023/07/02 03:09:02;;;;;;;;;;;;;;;-144.99;100.00;52331.91;5037618;28;19928;-71
2023/07/02 03:11:29;;;;;;;;;;;;;;;-144.99;100.00;52333.94;5052539;28;20491;-70
2023/07/02 03:13:55;;;;;;;;;;;;;;;-144.99;100.00;52348.22;5041648;28;19960;-70
2023/07/02 03:16:22;;;;;;;;;;;;;;;-144.99;100.00;52338.03;5044205;28;19950;-68
2023/07/02 03:18:49;;;;;;;;;;;;;;;-144.99;100.00;52366.56;5042880;28;19986;-70
2023/07/02 03:21:17;;;;;;;;;;;;;;;-144.99;100.00;52325.81;5039423;28;19951;-68
2023/07/02 03:23:44;;;;;;;;;;;;;;;-144.99;100.00;52370.63;5042907;28;19950;-72
2023/07/02 03:26:11;;;;;;;;;;;;;;;-144.99;100.00;52338.03;5048771;28;20099;-70
2023/07/02 03:28:37;;;;;;;;;;;;;;;-144.99;100.00;52366.56;5045237;28;19963;-70
2023/07/02 03:31:04;;;;;;;;;;;;;;;-144.99;100.00;52346.19;5047587;28;19960;-68
2023/07/02 03:33:30;;;;;;;;;;;;;;;-144.99;100.00;52366.56;5038245;28;20271;-69
2023/07/02 03:35:57;;;;;;;;;;;;;;;-144.99;100.00;52360.44;5042598;28;19939;-68
2023/07/02 03:38:25;;;;;;;;;;;;;;;-144.99;100.00;52366.56;5045323;28;19947;-68
2023/07/02 03:40:51;;;;;;;;;;;;;;;-144.99;100.00;52307.47;5044915;28;20387;-68
2023/07/02 03:43:18;;;;;;;;;;;;;;;-144.99;100.00;52329.88;5041082;28;19944;-68
2023/07/02 03:45:45;;;;;;;;;;;;;;;-144.99;100.00;52350.25;5054113;28;20336;-68
2023/07/02 03:48:12;;;;;;;;;;;;;;;-144.99;100.00;52354.34;5044749;28;19997;-69
2023/07/02 03:50:38;;;;;;;;;;;;;;;-144.99;100.00;52382.88;5049255;28;19976;-68
2023/07/02 03:53:05;;;;;;;;;;;;;;;-144.99;100.00;52354.34;5058065;28;20399;-69
2023/07/02 03:55:33;;;;;;;;;;;;;;;-144.99;100.00;52362.50;5042718;28;20183;-70
2023/07/02 03:57:59;;;;;;;;;;;;;;;-144.99;100.00;52362.50;5049366;28;20423;-69
2023/07/02 04:00:26;;;;;;;;;;;;;;;-144.99;100.00;52350.25;5042673;28;19929;-69
2023/07/02 04:02:53;;;;;;;;;;;;;;;-144.99;100.00;52380.84;5048354;28;20271;-68
2023/07/02 04:05:19;;;;;;;;;;;;;;;-144.99;100.00;52331.91;5049189;28;20410;-69
2023/07/02 04:07:46;;;;;;;;;;;;;;;-144.99;100.00;52380.84;5048818;28;20104;-69
2023/07/02 04:10:13;;;;;;;;;;;;;;;-144.99;100.00;52340.06;5042939;28;19969;-70
2023/07/02 04:12:41;;;;;;;;;;;;;;;-144.99;100.00;52358.41;5039369;28;20063;-71
2023/07/02 04:15:08;;;;;;;;;;;;;;;-144.99;100.00;52384.91;5053256;28;20377;-69
2023/07/02 04:17:35;;;;;;;;;;;;;;;-144.99;100.00;52329.88;5045787;28;19944;-71
2023/07/02 04:20:03;;;;;;;;;;;;;;;-144.99;100.00;52358.41;5047866;28;20332;-69
2023/07/02 04:22:30;;;;;;;;;;;;;;;-144.99;99.73;52350.25;5048525;28;19960;-71
2023/07/02 04:24:57;;;;;;;;;;;;;;;-144.99;98.84;52354.34;5053176;28;19963;-69
2023/07/02 04:27:23;;;;;;;;;;;;;;;-144.99;99.18;52358.41;5043301;28;20127;-69
2023/07/02 04:29:51;;;;;;;;;;;;;;;-144.99;99.04;52317.66;5048160;28;19959;-69
2023/07/02 04:32:18;;;;;;;;;;;;;;;-144.99;98.58;52346.19;5047175;28;19943;-69
2023/07/02 04:34:44;;;;;;;;;;;;;;;-144.99;98.27;52333.94;5045997;28;19948;-69
2023/07/02 04:37:11;;;;;;;;;;;;;;;-144.99;98.26;52307.47;5046249;28;19948;-69
2023/07/02 04:39:38;;;;;;;;;;;;;;;-144.99;97.67;52346.19;5047971;28;19966;-69
2023/07/02 04:42:05;;;;;;;;;;;;;;;-144.99;96.68;52311.53;5048017;28;19937;-69
2023/07/02 04:44:31;;;;;;;;;;;;;;;-144.99;96.91;52342.09;5045870;28;19951;-69
2023/07/02 04:47:00;;;;;;;;;;;;;;;-144.99;96.28;52329.88;5053908;28;19947;-68
2023/07/02 04:49:27;;;;;;;;;;;;;;;-144.99;96.14;52327.84;5049984;28;19963;-68
2023/07/02 04:51:54;;;;;;;;;;;;;;;-144.99;95.11;52366.56;5045122;28;19947;-68
2023/07/02 04:54:21;;;;;;;;;;;;;;;-144.99;95.04;52338.03;5043561;28;19939;-68
2023/07/02 04:56:48;;;;;;;;;;;;;;;-144.99;94.55;52354.34;5043492;28;20294;-68
2023/07/02 04:59:15;;;;;;;;;;;;;;;-144.99;94.43;52333.94;5052909;28;19970;-68
2023/07/02 05:01:42;;;;;;;;;;;;;;;-144.99;94.03;52354.34;5045137;28;20064;-68
2023/07/02 05:04:10;;;;;;;;;;;;;;;-144.99;94.18;52329.88;5038955;28;19946;-68
2023/07/02 05:06:37;;;;;;;;;;;;;;;-144.99;94.19;52374.72;5060975;28;19929;-68
2023/07/02 05:09:03;;;;;;;;;;;;;;;-144.99;94.23;52321.72;5043374;28;19953;-68
2023/07/02 05:11:30;;;;;;;;;;;;;;;-144.99;94.41;52354.34;5040139;28;19956;-68
2023/07/02 05:13:57;;;;;;;;;;;;;;;-144.99;94.25;52289.13;5059579;28;19933;-68
2023/07/02 05:16:23;;;;;;;;;;;;;;;-144.99;94.38;52344.16;5043649;28;19933;-68
2023/07/02 05:18:50;;;;;;;;;;;;;;;-144.99;94.02;52338.03;5050985;28;19941;-69
2023/07/02 05:21:19;;;;;;;;;;;;;;;-144.99;94.04;52350.25;5040827;28;19959;-69
2023/07/02 05:23:46;;;;;;;;;;;;;;;-144.99;93.83;52342.09;5048766;28;19924;-68
2023/07/02 05:26:13;;;;;;;;;;;;;;;-144.99;93.43;52366.56;5044716;28;19950;-69
2023/07/02 05:28:39;;;;;;;;;;;;;;;-144.99;92.84;52333.94;5049898;28;20321;-68
2023/07/02 05:31:06;;;;;;;;;;;;;;;-144.99;92.23;52338.03;5044075;28;19962;-68
2023/07/02 05:33:33;;;;;;;;;;;;;;;-144.99;91.45;52362.50;5045773;28;19952;-68
2023/07/02 05:35:59;;;;;;;;;;;;;;;-144.99;91.33;52293.19;5044277;28;20270;-68
2023/07/02 05:38:28;;;;;;;;;;;;;;;-144.99;91.79;52321.72;5047005;28;19954;-68
2023/07/02 05:40:54;;;;;;;;;;;;;;;-144.99;91.39;52333.94;5042217;28;19925;-66
2023/07/02 05:43:21;;;;;;;;;;;;;;;-144.99;90.79;52350.25;5039407;28;20005;-66
2023/07/02 05:45:47;;;;;;;;;;;;;;;-144.99;90.45;52331.91;5043097;28;19998;-67
2023/07/02 05:48:14;;;;;;;;;;;;;;;-144.99;89.93;52317.66;5035371;28;19999;-69
2023/07/02 05:50:41;;;;;;;;;;;;;;;-144.99;89.13;52329.88;5039538;28;19933;-69
2023/07/02 05:53:09;;;;;;;;;;;;;;;-144.99;88.25;52325.81;5042946;28;19936;-69
2023/07/02 05:55:37;;;;;;;;;;;;;;;-144.99;87.55;52305.41;5034011;28;19972;-69
2023/07/02 05:58:03;;;;;;;;;;;;;;;-144.99;87.50;52336.00;5044684;28;19924;-69
2023/07/02 06:00:30;;;;;;;;;;;;;;;-144.99;87.55;52325.81;5045896;28;19928;-69
2023/07/02 06:02:56;;;;;;;;;;;;;;;-144.99;86.83;52305.41;5039832;28;19984;-68
2023/07/02 06:05:23;;;;;;;;;;;;;;;-144.99;85.79;52305.41;5042202;28;19928;-69
2023/07/02 06:07:50;;;;;;;;;;;;;;;-144.99;85.88;52309.50;5053225;28;19931;-69
2023/07/02 06:10:17;;;;;;;;;;;;;;;-144.99;86.66;52329.88;5042935;28;19929;-69
2023/07/02 06:12:45;;;;;;;;;;;;;;;-144.99;86.27;52313.56;5054082;28;20410;-69
2023/07/02 06:15:11;;;;;;;;;;;;;;;-144.99;86.26;52303.38;5056430;28;19979;-68
2023/07/02 06:17:38;;;;;;;;;;;;;;;-144.99;86.21;52285.03;5039914;28;19936;-69
2023/07/02 06:20:06;;;;;;;;;;;;;;;-144.99;85.85;52321.72;5056551;28;19929;-69
2023/07/02 06:22:32;;;;;;;;;;;;;;;-144.99;86.05;52321.72;5055044;28;19929;-67
2023/07/02 06:24:59;;;;;;;;;;;;;;;-144.99;84.98;52317.66;5044560;28;19929;-68
2023/07/02 06:27:25;;;;;;;;;;;;;;;-144.99;84.56;52338.03;5050606;28;20013;-68
2023/07/02 06:29:53;;;;;;;;;;;;;;;-144.99;84.16;52317.66;5057564;28;19937;-68
2023/07/02 06:32:20;;;;;;;;;;;;;;;-144.99;83.59;52289.13;5042289;28;20262;-68
2023/07/02 06:34:47;;;;;;;;;;;;;;;-144.99;83.89;52317.66;5038038;28;19929;-68
2023/07/02 06:37:13;;;;;;;;;;;;;;;-144.99;82.63;52254.47;5042065;28;20385;-69
2023/07/02 06:39:40;;;;;;;;;;;;;;;-144.99;82.06;52272.81;5038863;28;19932;-68
2023/07/02 06:42:06;;;;;;;;;;;;;;;-144.99;81.22;52297.25;5046015;28;19929;-68
2023/07/02 06:44:33;;;;;;;;;;;;;;;-144.99;81.31;52293.19;5048782;28;19936;-69
2023/07/02 06:47:01;;;;;;;;;;;;;;;-144.99;81.38;52301.34;5056101;28;19940;-68
2023/07/02 06:49:28;;;;;;;;;;;;;;;-144.99;81.98;52301.34;5045520;28;19925;-68
2023/07/02 06:51:54;;;;;;;;;;;;;;;-144.99;81.75;52313.56;5036795;28;19935;-69
2023/07/02 06:54:21;;;;;;;;;;;;;;;-144.99;82.72;52307.47;5042229;28;19925;-68
2023/07/02 06:56:48;;;;;;;;;;;;;;;-144.99;83.21;52315.59;5046560;28;19931;-67
2023/07/02 06:59:19;;;;;;;;;;;;;;;-144.99;84.22;52352.28;5060033;28;20378;-68
2023/07/02 07:01:46;;;;;;;;;;;;;;;-144.99;85.11;52342.09;5040175;28;20369;-68
2023/07/02 07:04:14;;;;;;;;;;;;;;;-144.99;85.62;52342.09;5038508;28;19936;-69
2023/07/02 07:06:40;;;;;;;;;;;;;;;-144.99;85.95;52340.06;5049268;28;20394;-68
2023/07/02 07:09:07;;;;;;;;;;;;;;;-144.99;86.81;52321.72;5032741;28;19932;-68
2023/07/02 07:11:33;;;;;;;;;;;;;;;-144.99;87.18;52309.50;5035944;28;19944;-68
2023/07/02 07:14:00;;;;;;;;;;;;;;;-144.99;87.06;52276.88;5050316;28;19939;-68
2023/07/02 07:16:27;;;;;;;;;;;;;;;-144.99;87.47;52321.72;5035816;28;19936;-68
2023/07/02 07:18:53;;;;;;;;;;;;;;;-144.99;86.47;52315.59;5052534;28;19928;-68
2023/07/02 07:21:22;;;;;;;;;;;;;;;-144.99;86.34;52317.66;5043666;28;20350;-68
2023/07/02 07:23:49;;;;;;;;;;;;;;;-144.99;85.51;52293.19;5040568;28;19933;-68
2023/07/02 07:26:16;;;;;;;;;;;;;;;-144.99;84.98;52321.72;5036696;28;19929;-69
2023/07/02 07:28:42;;;;;;;;;;;;;;;-144.99;84.16;52370.63;5044859;28;20402;-69
2023/07/02 07:31:09;;;;;;;;;;;;;;;-144.99;84.75;52333.94;5040278;28;19967;-70
2023/07/02 07:33:36;;;;;;;;;;;;;;;-144.99;84.59;52325.81;5052991;28;20003;-69
2023/07/02 07:36:03;;;;;;;;;;;;;;;-144.99;83.29;52315.59;5033598;28;20020;-68
2023/07/02 07:38:31;;;;;;;;;;;;;;;-144.99;81.75;52293.19;5033355;28;20363;-68
2023/07/02 07:40:58;;;;;;;;;;;;;;;-144.99;82.02;52305.41;5042661;28;19929;-68
2023/07/02 07:43:24;;;;;;;;;;;;;;;-144.99;80.25;52293.19;5047837;28;19928;-69
2023/07/02 07:45:51;;;;;;;;;;;;;;;-144.99;79.24;52305.41;5058877;28;19947;-69
2023/07/02 07:48:18;;;;;;;;;;;;;;;-144.99;78.69;52272.81;5032857;28;19925;-68
2023/07/02 07:50:44;;;;;;;;;;;;;;;-144.99;77.66;52321.72;5050383;28;19925;-70
2023/07/02 07:53:11;;;;;;;;;;;;;;;-144.99;77.48;52285.03;5042379;28;19932;-68
2023/07/02 07:55:39;;;;;;;;;;;;;;;-144.99;77.23;52305.41;5036790;28;19929;-68
2023/07/02 07:58:05;;;;;;;;;;;;;;;-144.99;77.23;52276.88;5041911;28;19929;-67
2023/07/02 08:00:32;;;;;;;;;;;;;;;-144.99;77.30;52287.06;5046174;28;19928;-68
2023/07/02 08:03:00;;;;;;;;;;;;;;;-144.99;77.38;52321.72;5050681;28;19928;-67
2023/07/02 08:05:27;;;;;;;;;;;;;;;-144.99;77.41;52309.50;5046998;28;19933;-68
2023/07/02 08:07:54;;;;;;;;;;;;;;;-144.99;77.76;52303.38;5050089;28;19929;-69
2023/07/02 08:10:21;;;;;;;;;;;;;;;-144.99;78.22;52319.69;5037383;28;19928;-69
2023/07/02 08:12:49;;;;;;;;;;;;;;;-144.99;78.77;52338.03;5036775;28;19933;-69
2023/07/02 08:15:15;;;;;;;;;;;;;;;-144.99;80.31;52309.50;5044036;28;19936;-68
2023/07/02 08:17:42;;;;;;;;;;;;;;;-144.99;82.10;52338.03;5036418;28;19932;-68
2023/07/02 08:20:09;;;;;;;;;;;;;;;-144.99;83.91;52325.81;5042046;28;20047;-68
2023/07/02 08:22:37;;;;;;;;;;;;;;;-144.99;87.42;52362.50;5050612;28;19928;-68
2023/07/02 08:25:03;;;;;;;;;;;;;;;-144.99;89.30;52313.56;5056369;28;20002;-67
2023/07/02 08:27:30;;;;;;;;;;;;;;;-144.99;90.57;52358.41;5036442;28;19929;-68
2023/07/02 08:29:58;;;;;;;;;;;;;;;-144.99;89.46;52342.09;5049288;28;19928;-68
2023/07/02 08:32:25;;;;;;;;;;;;;;;-144.99;88.17;52338.03;5046577;28;19925;-69
2023/07/02 08:34:51;;;;;;;;;;;;;;;-144.99;86.97;52313.56;5040649;28;19963;-69
2023/07/02 08:37:18;;;;;;;;;;;;;;;-144.99;85.00;52289.13;5050644;28;19978;-69
2023/07/02 08:39:45;;;;;;;;;;;;;;;-144.99;83.92;52289.13;5052661;28;19924;-68
2023/07/02 08:42:11;;;;;;;;;;;;;;;-144.99;81.98;52291.16;5048597;28;19925;-67
2023/07/02 08:44:38;;;;;;;;;;;;;;;-144.99;79.94;52266.69;5049781;28;19952;-68
2023/07/02 08:47:07;;;;;;;;;;;;;;;-144.99;80.06;52246.31;5050683;28;20029;-69
2023/07/02 08:49:33;;;;;;;;;;;;;;;-144.99;76.52;52238.16;5042993;28;19935;-71
2023/07/02 08:52:00;;;;;;;;;;;;;;;-144.99;75.20;52260.56;5042546;28;19924;-70
2023/07/02 08:54:27;;;;;;;;;;;;;;;-144.99;74.39;52297.25;5058964;28;19952;-70
2023/07/02 08:56:53;;;;;;;;;;;;;;;-144.99;73.69;52264.66;5045684;28;20329;-69
2023/07/02 08:59:20;;;;;;;;;;;;;;;-144.99;72.88;52313.56;5042666;28;19925;-69
2023/07/02 09:01:48;;;;;;;;;;;;;;;-144.99;75.19;52293.19;5037684;28;20032;-68
2023/07/02 09:04:23;;;;;;;;;;;;;;;-144.99;79.99;52317.66;5039437;28;19932;-68
2023/07/02 09:06:49;;;;;;;;;;;;;;;-144.99;96.31;52370.63;5044171;28;19925;-71
2023/07/02 09:09:16;;;;;;;;;;;;;;;-144.99;100.00;52388.97;5048390;28;19928;-71
2023/07/02 09:11:49;;;;;;;;;;;;;;;-144.99;100.00;52372.69;5050750;28;19925;-71
2023/07/02 09:14:26;;;;;;;;;;;;;;;-144.99;100.00;52376.75;5050360;28;19972;-71
2023/07/02 09:17:02;;;;;;;;;;;;;;;-144.99;100.00;52370.63;5052662;28;19928;-66
2023/07/02 09:19:30;;;;;;;;;;;;;;;-144.99;100.00;52354.34;5040942;28;20263;-72
2023/07/02 09:21:59;;;;;;;;;;;;;;;-144.99;100.00;52338.03;5037087;28;19947;-70
2023/07/02 09:24:26;;;;;;;;;;;;;;;-144.99;100.00;52323.75;5053517;28;19935;-70
2023/07/02 09:26:54;;;;;;;;;;;;;;;-144.99;98.87;52342.09;5046015;28;19928;-70
2023/07/02 09:29:22;;;;;;;;;;;;;;;-144.99;97.44;52329.88;5041591;28;19925;-69
2023/07/02 09:31:49;;;;;;;;;;;;;;;-144.99;94.71;52317.66;5042072;28;19990;-70
2023/07/02 09:34:16;;;;;;;;;;;;;;;-144.99;93.14;52307.47;5045114;28;20336;-71
2023/07/02 09:36:45;;;;;;;;;;;;;;;-144.99;92.17;52299.31;5038021;28;19925;-71
2023/07/02 09:39:12;;;;;;;;;;;;;;;-144.99;88.72;52252.44;5042531;28;19929;-71
2023/07/02 09:41:40;;;;;;;;;;;;;;;-144.99;83.29;52264.66;5045001;28;19933;-71
2023/07/02 09:44:07;;;;;;;;;;;;;;;-144.99;82.70;52244.28;5051245;28;19928;-71
2023/07/02 09:46:35;;;;;;;;;;;;;;;-144.99;81.63;52260.56;5047704;28;19976;-70
2023/07/02 09:49:02;;;;;;;;;;;;;;;-144.99;79.63;52240.19;5045164;28;19986;-71
2023/07/02 09:51:29;;;;;;;;;;;;;;;-144.99;78.27;52256.50;5045149;28;19951;-71
2023/07/02 09:53:57;;;;;;;;;;;;;;;-144.99;75.86;52248.34;5046538;28;20086;-71
2023/07/02 09:56:23;;;;;;;;;;;;;;;-144.99;73.04;52219.81;5044462;28;20027;-70
2023/07/02 09:58:51;;;;;;;;;;;;;;;-144.99;71.63;52254.47;5039163;28;19972;-71
2023/07/02 10:01:17;;;;;;;;;;;;;;;-144.99;72.72;52240.19;5039729;28;19929;-71
2023/07/02 10:03:44;;;;;;;;;;;;;;;-144.99;71.99;52240.19;5037687;28;19925;-70
2023/07/02 10:06:11;;;;;;;;;;;;;;;-144.99;72.02;52238.16;5045644;28;20303;-70
2023/07/02 10:08:37;;;;;;;;;;;;;;;-144.99;71.27;52232.03;5047618;28;19928;-70
2023/07/02 10:11:09;;;;;;;;;;;;;;;-144.99;70.78;52264.66;5044805;28;19925;-69
2023/07/02 10:13:36;;;;;;;;;;;;;;;-144.99;70.41;52219.81;5042421;28;19925;-71
2023/07/02 10:16:02;;;;;;;;;;;;;;;-144.99;69.75;52195.34;5045541;28;19929;-69
2023/07/02 10:18:29;;;;;;;;;;;;;;;-144.99;69.27;52244.28;5041292;28;19928;-70
2023/07/02 10:20:56;;;;;;;;;;;;;;;-144.99;69.50;52211.66;5041286;28;20305;-69
2023/07/02 10:23:33;;;;;;;;;;;;;;;-144.99;68.92;52227.97;5041183;28;19935;-70
2023/07/02 10:26:10;;;;;;;;;;;;;;;-144.99;69.17;52207.59;5041187;28;20005;-70
2023/07/02 10:28:38;;;;;;;;;;;;;;;-144.99;68.68;52256.50;5043244;28;19925;-70
2023/07/02 10:31:05;;;;;;;;;;;;;;;-144.99;68.88;52183.13;5038500;28;20342;-70
2023/07/02 10:33:31;;;;;;;;;;;;;;;-144.99;67.71;52248.34;5040616;28;20357;-68
2023/07/02 10:35:58;;;;;;;;;;;;;;;-144.99;67.88;52174.97;5037382;28;19929;-69
2023/07/02 10:38:25;;;;;;;;;;;;;;;-144.99;67.11;52166.81;5033929;28;20029;-69
2023/07/02 10:40:56;;;;;;;;;;;;;;;-144.99;68.05;52183.13;5050148;28;19975;-68
2023/07/02 10:43:25;;;;;;;;;;;;;;;-144.99;67.00;52219.81;5040467;28;19975;-70
2023/07/02 10:45:53;;;;;;;;;;;;;;;-144.99;67.64;52232.03;5051238;28;19947;-69
2023/07/02 10:48:20;;;;;;;;;;;;;;;-144.99;67.88;52223.88;5050288;28;19932;-69
2023/07/02 10:50:46;;;;;;;;;;;;;;;-144.99;67.53;52227.97;5044931;28;20301;-69
2023/07/02 10:53:15;;;;;;;;;;;;;;;-144.99;67.59;52199.44;5037586;28;20262;-68
2023/07/02 10:55:42;;;;;;;;;;;;;;;-144.99;67.31;52170.91;5044308;28;19955;-69
2023/07/02 10:58:09;;;;;;;;;;;;;;;-144.99;66.59;52207.59;5038687;28;19929;-69
2023/07/02 11:00:44;;;;;;;;;;;;;;;-144.99;66.98;52248.34;5031023;28;20005;-69
2023/07/02 11:03:19;;;;;;;;;;;;;;;-144.99;67.14;52225.94;5039235;28;20031;-70
2023/07/02 11:05:46;;;;;;;;;;;;;;;-144.99;68.96;52252.44;5053250;28;19924;-70
2023/07/02 11:08:12;;;;;;;;;;;;;;;-144.99;72.08;52260.56;5041899;28;19932;-68
2023/07/02 11:10:41;;;;;;;;;;;;;;;-144.99;74.28;52291.16;5035464;28;20301;-69
2023/07/02 11:13:12;;;;;;;;;;;;;;;-144.99;76.39;52309.50;5031844;28;19929;-68
2023/07/02 11:15:40;;;;;;;;;;;;;;;-144.99;80.52;52289.13;5037785;28;19937;-68
2023/07/02 11:18:10;;;;;;;;;;;;;;;-144.99;80.48;52256.50;5039506;28;19932;-69
2023/07/02 11:20:39;;;;;;;;;;;;;;;-144.99;79.02;52242.22;5040518;28;19932;-69
2023/07/02 11:23:06;;;;;;;;;;;;;;;-144.99;77.55;52174.97;5039717;28;19929;-69
2023/07/02 11:25:32;;;;;;;;;;;;;;;-144.99;75.29;52240.19;5034782;28;19935;-69
2023/07/02 11:28:05;;;;;;;;;;;;;;;-144.99;74.89;52280.97;5050897;28;20305;-68
2023/07/02 11:30:32;;;;;;;;;;;;;;;-144.99;75.11;52246.31;5038941;28;20319;-69
2023/07/02 11:32:59;;;;;;;;;;;;;;;-144.99;74.22;52293.19;5049756;28;19932;-69
2023/07/02 11:35:35;;;;;;;;;;;;;;;-144.99;74.05;52276.88;5028012;28;19929;-69
2023/07/02 11:38:03;;;;;;;;;;;;;;;-144.99;74.20;52244.28;5044308;28;20282;-69
2023/07/02 11:40:29;;;;;;;;;;;;;;;-144.99;74.25;52199.44;5037847;28;19934;-71
2023/07/02 11:42:56;;;;;;;;;;;;;;;-144.99;72.87;52189.25;5051274;28;19966;-70
2023/07/02 11:45:23;;;;;;;;;;;;;;;-144.99;72.17;52240.19;5050002;28;19936;-69
2023/07/02 11:47:49;;;;;;;;;;;;;;;-144.99;73.26;52268.72;5034967;28;19925;-69
2023/07/02 11:50:16;;;;;;;;;;;;;;;-144.99;73.27;52276.88;5044771;28;19929;-68
2023/07/02 11:52:43;;;;;;;;;;;;;;;-144.99;74.99;52325.81;5048997;28;20308;-68
2023/07/02 11:55:11;;;;;;;;;;;;;;;-144.99;78.86;52295.22;5036477;28;20285;-69
2023/07/02 11:57:38;;;;;;;;;;;;;;;-144.99;80.75;52329.88;5036242;28;19924;-69
2023/07/02 12:00:05;;;;;;;;;;;;;;;-144.99;80.89;52248.34;5035530;28;19926;-69
2023/07/02 12:02:32;;;;;;;;;;;;;;;-144.99;78.98;52234.09;5039564;28;19954;-69
2023/07/02 12:04:58;;;;;;;;;;;;;;;-144.99;77.08;52168.84;5038933;28;20525;-69
2023/07/02 12:07:25;;;;;;;;;;;;;;;-144.99;75.47;52213.69;5042859;28;19929;-69
2023/07/02 12:09:52;;;;;;;;;;;;;;;-144.99;74.13;52201.47;5042434;28;19960;-69
2023/07/02 12:12:20;;;;;;;;;;;;;;;-144.99;72.49;52181.09;5039506;28;19925;-69
2023/07/02 12:14:46;;;;;;;;;;;;;;;-144.99;71.82;52166.81;5043321;28;19928;-69
2023/07/02 12:17:13;;;;;;;;;;;;;;;-144.99;71.12;52162.75;5040348;28;20298;-69
2023/07/02 12:19:40;;;;;;;;;;;;;;;-144.99;70.71;52240.19;5042076;28;19929;-69
2023/07/02 12:22:06;;;;;;;;;;;;;;;-144.99;70.94;52268.72;5033833;28;19990;-70
2023/07/02 12:24:33;;;;;;;;;;;;;;;-144.99;70.83;52244.28;5054405;28;20229;-69